sensor_id;sensor_type;location;lat;lon;timestamp;pressure;altitude;pressure_sealevel;temperature;humidity
29903;BME280;30288;50.514;9.678;2023-04-06T00:01:55;99039.97;;;-2.62;100.00
29903;BME280;30288;50.514;9.678;2023-04-06T00:04:03;99043.75;;;-2.73;100.00
29903;BME280;30288;50.514;9.678;2023-04-06T00:06:08;99036.03;;;-2.84;100.00
29903;BME280;30288;50.514;9.678;2023-04-06T00:08:13;99033.69;;;-2.79;100.00
29903;BME280;30288;50.514;9.678;2023-04-06T00:10:18;99039.19;;;-2.88;100.00
29903;BME280;30288;50.514;9.678;2023-04-06T00:12:23;99035.75;;;-2.93;100.00
29903;BME280;30288;50.514;9.678;2023-04-06T00:14:28;99030.75;;;-2.96;100.00
29903;BME280;30288;50.514;9.678;2023-04-06T00:16:33;99036.25;;;-3.03;100.00
29903;BME280;30288;50.514;9.678;2023-04-06T00:18:39;99031.25;;;-3.06;100.00
29903;BME280;30288;50.514;9.678;2023-04-06T00:20:47;99035.19;;;-3.11;100.00
29903;BME280;30288;50.514;9.678;2023-04-06T00:22:53;99031.97;;;-3.10;100.00
29903;BME280;30288;50.514;9.678;2023-04-06T00:24:58;99023.59;;;-3.15;100.00
29903;BME280;30288;50.514;9.678;2023-04-06T00:27:03;99025.97;;;-2.91;100.00
29903;BME280;30288;50.514;9.678;2023-04-06T00:29:08;99029.06;;;-2.97;100.00
29903;BME280;30288;50.514;9.678;2023-04-06T00:31:14;99030.03;;;-2.92;100.00
29903;BME280;30288;50.514;9.678;2023-04-06T00:33:19;99020.63;;;-3.05;100.00
29903;BME280;30288;50.514;9.678;2023-04-06T00:35:24;99027.06;;;-3.09;100.00
29903;BME280;30288;50.514;9.678;2023-04-06T00:37:32;99019.44;;;-3.16;100.00
29903;BME280;30288;50.514;9.678;2023-04-06T00:39:37;99023.38;;;-3.21;100.00
29903;BME280;30288;50.514;9.678;2023-04-06T00:41:49;99023.66;;;-3.12;100.00
29903;BME280;30288;50.514;9.678;2023-04-06T00:43:56;99025.34;;;-3.11;100.00
29903;BME280;30288;50.514;9.678;2023-04-06T00:46:01;99020.38;;;-3.13;100.00
29903;BME280;30288;50.514;9.678;2023-04-06T00:48:08;99012.81;;;-3.19;100.00
29903;BME280;30288;50.514;9.678;2023-04-06T00:50:13;99018.47;;;-3.21;100.00
29903;BME280;30288;50.514;9.678;2023-04-06T00:52:19;99013.63;;;-3.18;100.00
29903;BME280;30288;50.514;9.678;2023-04-06T00:54:28;99008.63;;;-3.21;100.00
29903;BME280;30288;50.514;9.678;2023-04-06T00:56:34;99001.00;;;-3.29;100.00
29903;BME280;30288;50.514;9.678;2023-04-06T00:58:40;99008.06;;;-3.39;100.00
29903;BME280;30288;50.514;9.678;2023-04-06T01:00:45;98997.06;;;-3.49;100.00
29903;BME280;30288;50.514;9.678;2023-04-06T01:02:53;98995.53;;;-3.47;100.00
29903;BME280;30288;50.514;9.678;2023-04-06T01:05:07;98993.97;;;-3.43;100.00
29903;BME280;30288;50.514;9.678;2023-04-06T01:07:22;98994.56;;;-3.50;100.00
29903;BME280;30288;50.514;9.678;2023-04-06T01:09:42;99004.41;;;-3.50;100.00
29903;BME280;30288;50.514;9.678;2023-04-06T01:11:54;98995.25;;;-3.29;100.00
29903;BME280;30288;50.514;9.678;2023-04-06T01:14:04;98991.03;;;-3.33;100.00
29903;BME280;30288;50.514;9.678;2023-04-06T01:16:24;98986.69;;;-3.40;100.00
29903;BME280;30288;50.514;9.678;2023-04-06T01:18:53;98988.06;;;-3.48;100.00
29903;BME280;30288;50.514;9.678;2023-04-06T01:21:04;98987.78;;;-3.58;100.00
29903;BME280;30288;50.514;9.678;2023-04-06T01:23:14;98984.72;;;-3.50;100.00
29903;BME280;30288;50.514;9.678;2023-04-06T01:25:21;98981.19;;;-3.59;100.00
29903;BME280;30288;50.514;9.678;2023-04-06T01:27:40;98978.94;;;-3.53;100.00
29903;BME280;30288;50.514;9.678;2023-04-06T01:29:45;98980.19;;;-3.38;100.00
29903;BME280;30288;50.514;9.678;2023-04-06T01:32:02;98980.59;;;-3.25;100.00
29903;BME280;30288;50.514;9.678;2023-04-06T01:34:13;98977.22;;;-3.28;100.00
29903;BME280;30288;50.514;9.678;2023-04-06T01:36:20;98983.91;;;-3.24;100.00
29903;BME280;30288;50.514;9.678;2023-04-06T01:38:36;98980.34;;;-3.32;100.00
29903;BME280;30288;50.514;9.678;2023-04-06T01:40:42;98967.75;;;-3.43;100.00
29903;BME280;30288;50.514;9.678;2023-04-06T01:42:47;98966.69;;;-3.49;100.00
29903;BME280;30288;50.514;9.678;2023-04-06T01:45:01;98966.78;;;-3.46;100.00
29903;BME280;30288;50.514;9.678;2023-04-06T01:47:06;98961.22;;;-3.41;100.00
29903;BME280;30288;50.514;9.678;2023-04-06T01:49:12;98959.38;;;-3.48;100.00
29903;BME280;30288;50.514;9.678;2023-04-06T01:51:22;98963.97;;;-3.59;100.00
29903;BME280;30288;50.514;9.678;2023-04-06T01:53:30;98962.06;;;-3.67;100.00
29903;BME280;30288;50.514;9.678;2023-04-06T01:55:42;98961.00;;;-3.74;100.00
29903;BME280;30288;50.514;9.678;2023-04-06T01:58:00;98962.31;;;-3.85;100.00
29903;BME280;30288;50.514;9.678;2023-04-06T02:00:12;98960.50;;;-3.89;100.00
29903;BME280;30288;50.514;9.678;2023-04-06T02:02:24;98957.69;;;-3.76;100.00
29903;BME280;30288;50.514;9.678;2023-04-06T02:04:35;98951.84;;;-3.53;100.00
29903;BME280;30288;50.514;9.678;2023-04-06T02:06:47;98961.41;;;-3.62;100.00
29903;BME280;30288;50.514;9.678;2023-04-06T02:08:56;98962.06;;;-3.66;100.00
29903;BME280;30288;50.514;9.678;2023-04-06T02:11:04;98973.16;;;-3.78;100.00
29903;BME280;30288;50.514;9.678;2023-04-06T02:13:18;98973.66;;;-3.88;100.00
29903;BME280;30288;50.514;9.678;2023-04-06T02:15:27;98969.56;;;-3.63;100.00
29903;BME280;30288;50.514;9.678;2023-04-06T02:17:33;98960.22;;;-3.47;100.00
29903;BME280;30288;50.514;9.678;2023-04-06T02:19:39;98961.13;;;-3.44;100.00
29903;BME280;30288;50.514;9.678;2023-04-06T02:21:44;98962.28;;;-3.60;100.00
29903;BME280;30288;50.514;9.678;2023-04-06T02:23:49;98964.53;;;-3.66;100.00
29903;BME280;30288;50.514;9.678;2023-04-06T02:25:55;98974.84;;;-3.77;100.00
29903;BME280;30288;50.514;9.678;2023-04-06T02:28:03;98965.63;;;-3.83;100.00
29903;BME280;30288;50.514;9.678;2023-04-06T02:30:10;98961.13;;;-3.71;100.00
29903;BME280;30288;50.514;9.678;2023-04-06T02:32:15;98957.22;;;-3.64;100.00
29903;BME280;30288;50.514;9.678;2023-04-06T02:34:22;98958.66;;;-3.71;100.00
29903;BME280;30288;50.514;9.678;2023-04-06T02:36:28;98964.25;;;-3.75;100.00
29903;BME280;30288;50.514;9.678;2023-04-06T02:38:33;98962.31;;;-3.85;100.00
29903;BME280;30288;50.514;9.678;2023-04-06T02:40:38;98958.66;;;-3.96;100.00
29903;BME280;30288;50.514;9.678;2023-04-06T02:42:54;98963.16;;;-4.08;100.00
29903;BME280;30288;50.514;9.678;2023-04-06T02:45:08;98951.66;;;-4.09;100.00
29903;BME280;30288;50.514;9.678;2023-04-06T02:47:17;98956.97;;;-3.97;100.00
29903;BME280;30288;50.514;9.678;2023-04-06T02:49:25;98955.78;;;-3.83;100.00
29903;BME280;30288;50.514;9.678;2023-04-06T02:51:33;98962.41;;;-3.82;100.00
29903;BME280;30288;50.514;9.678;2023-04-06T02:53:52;98962.09;;;-3.91;100.00
29903;BME280;30288;50.514;9.678;2023-04-06T02:55:57;98960.81;;;-3.80;100.00
29903;BME280;30288;50.514;9.678;2023-04-06T02:58:15;98958.03;;;-3.90;100.00
29903;BME280;30288;50.514;9.678;2023-04-06T03:00:27;98951.16;;;-3.74;100.00
29903;BME280;30288;50.514;9.678;2023-04-06T03:02:32;98955.78;;;-3.83;100.00
29903;BME280;30288;50.514;9.678;2023-04-06T03:04:44;98950.59;;;-3.92;100.00
29903;BME280;30288;50.514;9.678;2023-04-06T03:06:58;98955.00;;;-3.82;100.00
29903;BME280;30288;50.514;9.678;2023-04-06T03:09:10;98947.34;;;-3.91;100.00
29903;BME280;30288;50.514;9.678;2023-04-06T03:11:18;98953.38;;;-3.81;100.00
29903;BME280;30288;50.514;9.678;2023-04-06T03:13:26;98946.34;;;-3.71;100.00
29903;BME280;30288;50.514;9.678;2023-04-06T03:15:35;98952.56;;;-3.82;100.00
29903;BME280;30288;50.514;9.678;2023-04-06T03:17:48;98950.59;;;-3.92;100.00
29903;BME280;30288;50.514;9.678;2023-04-06T03:20:12;98949.19;;;-3.84;100.00
29903;BME280;30288;50.514;9.678;2023-04-06T03:22:17;98953.53;;;-3.77;100.00
29903;BME280;30288;50.514;9.678;2023-04-06T03:24:23;98946.81;;;-3.56;100.00
29903;BME280;30288;50.514;9.678;2023-04-06T03:26:28;98947.50;;;-3.60;100.00
29903;BME280;30288;50.514;9.678;2023-04-06T03:28:38;98952.94;;;-3.70;100.00
29903;BME280;30288;50.514;9.678;2023-04-06T03:30:46;98954.03;;;-3.87;100.00
29903;BME280;30288;50.514;9.678;2023-04-06T03:32:58;98959.84;;;-3.85;100.00
29903;BME280;30288;50.514;9.678;2023-04-06T03:35:09;98957.47;;;-3.82;100.00
29903;BME280;30288;50.514;9.678;2023-04-06T03:37:14;98955.41;;;-3.95;100.00
29903;BME280;30288;50.514;9.678;2023-04-06T03:39:25;98953.13;;;-4.14;100.00
29903;BME280;30288;50.514;9.678;2023-04-06T03:41:31;98956.06;;;-4.24;100.00
29903;BME280;30288;50.514;9.678;2023-04-06T03:43:56;98959.59;;;-4.16;100.00
29903;BME280;30288;50.514;9.678;2023-04-06T03:46:04;98959.38;;;-4.22;100.00
29903;BME280;30288;50.514;9.678;2023-04-06T03:48:09;98965.47;;;-4.36;100.00
29903;BME280;30288;50.514;9.678;2023-04-06T03:50:15;98961.53;;;-4.31;100.00
29903;BME280;30288;50.514;9.678;2023-04-06T03:52:20;98957.75;;;-4.23;100.00
29903;BME280;30288;50.514;9.678;2023-04-06T03:54:26;98956.66;;;-4.06;100.00
29903;BME280;30288;50.514;9.678;2023-04-06T03:56:31;98952.06;;;-3.97;100.00
29903;BME280;30288;50.514;9.678;2023-04-06T03:58:37;98955.28;;;-3.98;100.00
29903;BME280;30288;50.514;9.678;2023-04-06T04:00:42;98954.00;;;-4.12;100.00
29903;BME280;30288;50.514;9.678;2023-04-06T04:02:50;98960.03;;;-4.28;100.00
29903;BME280;30288;50.514;9.678;2023-04-06T04:04:55;98963.69;;;-4.41;100.00
29903;BME280;30288;50.514;9.678;2023-04-06T04:07:00;98961.75;;;-4.25;100.00
29903;BME280;30288;50.514;9.678;2023-04-06T04:09:05;98958.47;;;-4.26;100.00
29903;BME280;30288;50.514;9.678;2023-04-06T04:11:11;98959.28;;;-4.25;100.00
29903;BME280;30288;50.514;9.678;2023-04-06T04:13:20;98964.63;;;-4.13;100.00
29903;BME280;30288;50.514;9.678;2023-04-06T04:15:26;98967.97;;;-4.11;100.00
29903;BME280;30288;50.514;9.678;2023-04-06T04:17:31;98968.59;;;-4.17;100.00
29903;BME280;30288;50.514;9.678;2023-04-06T04:19:39;98969.34;;;-4.19;100.00
29903;BME280;30288;50.514;9.678;2023-04-06T04:21:46;98975.41;;;-4.10;100.00
29903;BME280;30288;50.514;9.678;2023-04-06T04:23:55;98973.50;;;-4.17;100.00
29903;BME280;30288;50.514;9.678;2023-04-06T04:26:01;98978.34;;;-4.20;100.00
29903;BME280;30288;50.514;9.678;2023-04-06T04:28:06;98972.97;;;-4.08;100.00
29903;BME280;30288;50.514;9.678;2023-04-06T04:30:13;98984.19;;;-4.16;100.00
29903;BME280;30288;50.514;9.678;2023-04-06T04:32:18;98976.13;;;-4.12;100.00
29903;BME280;30288;50.514;9.678;2023-04-06T04:34:24;98977.28;;;-4.26;100.00
29903;BME280;30288;50.514;9.678;2023-04-06T04:36:33;98970.22;;;-4.17;100.00
29903;BME280;30288;50.514;9.678;2023-04-06T04:38:42;98977.72;;;-4.14;100.00
29903;BME280;30288;50.514;9.678;2023-04-06T04:40:48;98980.88;;;-4.18;100.00
29903;BME280;30288;50.514;9.678;2023-04-06T04:42:53;98976.72;;;-4.19;100.00
29903;BME280;30288;50.514;9.678;2023-04-06T04:45:05;98983.56;;;-4.34;100.00
29903;BME280;30288;50.514;9.678;2023-04-06T04:47:13;98984.03;;;-4.45;100.00
29903;BME280;30288;50.514;9.678;2023-04-06T04:49:21;98982.09;;;-4.29;100.00
29903;BME280;30288;50.514;9.678;2023-04-06T04:51:26;98983.78;;;-4.28;100.00
29903;BME280;30288;50.514;9.678;2023-04-06T04:53:50;98988.38;;;-4.37;100.00
29903;BME280;30288;50.514;9.678;2023-04-06T04:55:59;98985.56;;;-4.24;100.00
29903;BME280;30288;50.514;9.678;2023-04-06T04:58:04;98981.72;;;-4.16;100.00
29903;BME280;30288;50.514;9.678;2023-04-06T05:00:22;98980.44;;;-4.30;100.00
29903;BME280;30288;50.514;9.678;2023-04-06T05:02:32;98983.66;;;-4.31;100.00
29903;BME280;30288;50.514;9.678;2023-04-06T05:05:05;98991.63;;;-4.38;100.00
29903;BME280;30288;50.514;9.678;2023-04-06T05:07:11;98980.00;;;-4.43;100.00
29903;BME280;30288;50.514;9.678;2023-04-06T05:09:21;98993.09;;;-4.44;100.00
29903;BME280;30288;50.514;9.678;2023-04-06T05:11:26;98987.13;;;-4.26;100.00
29903;BME280;30288;50.514;9.678;2023-04-06T05:13:35;98988.88;;;-4.24;100.00
29903;BME280;30288;50.514;9.678;2023-04-06T05:15:47;98984.09;;;-4.19;100.00
29903;BME280;30288;50.514;9.678;2023-04-06T05:18:07;98991.47;;;-4.19;100.00
29903;BME280;30288;50.514;9.678;2023-04-06T05:20:14;98981.03;;;-4.12;100.00
29903;BME280;30288;50.514;9.678;2023-04-06T05:22:25;98987.66;;;-4.11;100.00
29903;BME280;30288;50.514;9.678;2023-04-06T05:24:44;98991.19;;;-4.03;100.00
29903;BME280;30288;50.514;9.678;2023-04-06T05:26:50;98989.38;;;-3.85;100.00
29903;BME280;30288;50.514;9.678;2023-04-06T05:28:59;98992.22;;;-3.73;100.00
29903;BME280;30288;50.514;9.678;2023-04-06T05:31:08;98992.28;;;-3.70;100.00
29903;BME280;30288;50.514;9.678;2023-04-06T05:33:21;98992.41;;;-3.67;100.00
29903;BME280;30288;50.514;9.678;2023-04-06T05:35:37;98993.56;;;-3.56;100.00
29903;BME280;30288;50.514;9.678;2023-04-06T05:37:47;98995.41;;;-3.50;100.00
29903;BME280;30288;50.514;9.678;2023-04-06T05:39:59;98992.63;;;-3.34;100.00
29903;BME280;30288;50.514;9.678;2023-04-06T05:42:09;98993.66;;;-3.27;100.00
29903;BME280;30288;50.514;9.678;2023-04-06T05:44:27;99003.00;;;-3.17;100.00
29903;BME280;30288;50.514;9.678;2023-04-06T05:46:41;99006.34;;;-3.15;100.00
29903;BME280;30288;50.514;9.678;2023-04-06T05:48:50;98995.88;;;-3.08;100.00
29903;BME280;30288;50.514;9.678;2023-04-06T05:50:59;98993.59;;;-3.02;100.00
29903;BME280;30288;50.514;9.678;2023-04-06T05:53:18;98999.63;;;-2.92;100.00
29903;BME280;30288;50.514;9.678;2023-04-06T05:55:32;98994.06;;;-2.87;100.00
29903;BME280;30288;50.514;9.678;2023-04-06T05:57:50;98995.09;;;-2.79;100.00
29903;BME280;30288;50.514;9.678;2023-04-06T05:59:56;98990.56;;;-2.65;100.00
29903;BME280;30288;50.514;9.678;2023-04-06T06:02:13;98985.78;;;-2.60;100.00
29903;BME280;30288;50.514;9.678;2023-04-06T06:04:22;98995.06;;;-2.52;100.00
29903;BME280;30288;50.514;9.678;2023-04-06T06:06:30;98995.41;;;-2.40;100.00
29903;BME280;30288;50.514;9.678;2023-04-06T06:08:47;98994.81;;;-2.31;100.00
29903;BME280;30288;50.514;9.678;2023-04-06T06:10:57;98988.53;;;-2.20;100.00
29903;BME280;30288;50.514;9.678;2023-04-06T06:13:02;98985.41;;;-2.13;100.00
29903;BME280;30288;50.514;9.678;2023-04-06T06:15:10;98985.53;;;-2.10;100.00
29903;BME280;30288;50.514;9.678;2023-04-06T06:17:20;98978.25;;;-2.04;100.00
29903;BME280;30288;50.514;9.678;2023-04-06T06:19:26;98984.38;;;-1.90;100.00
29903;BME280;30288;50.514;9.678;2023-04-06T06:21:35;98982.97;;;-1.82;100.00
29903;BME280;30288;50.514;9.678;2023-04-06T06:23:42;98980.81;;;-1.68;100.00
29903;BME280;30288;50.514;9.678;2023-04-06T06:25:52;98978.53;;;-1.60;100.00
29903;BME280;30288;50.514;9.678;2023-04-06T06:28:03;98978.84;;;-1.48;100.00
29903;BME280;30288;50.514;9.678;2023-04-06T06:30:11;98977.38;;;-1.40;100.00
29903;BME280;30288;50.514;9.678;2023-04-06T06:32:18;98977.59;;;-1.31;100.00
29903;BME280;30288;50.514;9.678;2023-04-06T06:34:26;98981.06;;;-1.23;100.00
29903;BME280;30288;50.514;9.678;2023-04-06T06:36:35;98979.66;;;-1.12;100.00
29903;BME280;30288;50.514;9.678;2023-04-06T06:38:43;98978.38;;;-0.95;100.00
29903;BME280;30288;50.514;9.678;2023-04-06T06:40:51;98979.38;;;-0.88;100.00
29903;BME280;30288;50.514;9.678;2023-04-06T06:42:59;98977.19;;;-0.74;100.00
29903;BME280;30288;50.514;9.678;2023-04-06T06:45:11;98978.19;;;-0.65;100.00
29903;BME280;30288;50.514;9.678;2023-04-06T06:47:17;98974.28;;;-0.55;100.00
29903;BME280;30288;50.514;9.678;2023-04-06T06:49:22;98971.22;;;-0.42;100.00
29903;BME280;30288;50.514;9.678;2023-04-06T06:51:28;98969.84;;;-0.28;100.00
29903;BME280;30288;50.514;9.678;2023-04-06T06:53:33;98973.38;;;-0.17;100.00
29903;BME280;30288;50.514;9.678;2023-04-06T06:55:38;98973.69;;;0.00;100.00
29903;BME280;30288;50.514;9.678;2023-04-06T06:57:46;98973.91;;;0.14;100.00
29903;BME280;30288;50.514;9.678;2023-04-06T06:59:51;98973.34;;;0.28;100.00
29903;BME280;30288;50.514;9.678;2023-04-06T07:01:59;98974.41;;;0.44;100.00
29903;BME280;30288;50.514;9.678;2023-04-06T07:04:04;98973.88;;;0.62;100.00
29903;BME280;30288;50.514;9.678;2023-04-06T07:06:11;98971.63;;;0.75;100.00
29903;BME280;30288;50.514;9.678;2023-04-06T07:08:16;98973.47;;;0.92;100.00
29903;BME280;30288;50.514;9.678;2023-04-06T07:10:22;98972.94;;;1.09;100.00
29903;BME280;30288;50.514;9.678;2023-04-06T07:12:28;98972.31;;;1.27;100.00
29903;BME280;30288;50.514;9.678;2023-04-06T07:14:35;98975.00;;;1.44;100.00
29903;BME280;30288;50.514;9.678;2023-04-06T07:16:41;98972.72;;;1.60;100.00
29903;BME280;30288;50.514;9.678;2023-04-06T07:18:50;98962.13;;;1.76;100.00
29903;BME280;30288;50.514;9.678;2023-04-06T07:20:56;98966.53;;;2.02;100.00
29903;BME280;30288;50.514;9.678;2023-04-06T07:23:01;98965.03;;;2.19;100.00
29903;BME280;30288;50.514;9.678;2023-04-06T07:25:08;98963.50;;;2.33;100.00
29903;BME280;30288;50.514;9.678;2023-04-06T07:27:16;98964.50;;;2.52;100.00
29903;BME280;30288;50.514;9.678;2023-04-06T07:29:22;98972.09;;;2.72;100.00
29903;BME280;30288;50.514;9.678;2023-04-06T07:31:28;98965.63;;;2.92;100.00
29903;BME280;30288;50.514;9.678;2023-04-06T07:33:34;98962.41;;;3.14;100.00
29903;BME280;30288;50.514;9.678;2023-04-06T07:35:42;98970.78;;;3.28;100.00
29903;BME280;30288;50.514;9.678;2023-04-06T07:37:48;98966.72;;;3.47;100.00
29903;BME280;30288;50.514;9.678;2023-04-06T07:39:53;98967.66;;;3.69;100.00
29903;BME280;30288;50.514;9.678;2023-04-06T07:41:59;98961.03;;;3.86;100.00
29903;BME280;30288;50.514;9.678;2023-04-06T07:44:04;98953.59;;;4.01;100.00
29903;BME280;30288;50.514;9.678;2023-04-06T07:46:10;98956.13;;;4.25;100.00
29903;BME280;30288;50.514;9.678;2023-04-06T07:48:15;98962.78;;;4.54;100.00
29903;BME280;30288;50.514;9.678;2023-04-06T07:50:20;98951.94;;;4.76;100.00
29903;BME280;30288;50.514;9.678;2023-04-06T07:52:29;98947.75;;;4.99;100.00
29903;BME280;30288;50.514;9.678;2023-04-06T07:54:38;98951.03;;;5.19;100.00
29903;BME280;30288;50.514;9.678;2023-04-06T07:56:43;98943.47;;;5.38;100.00
29903;BME280;30288;50.514;9.678;2023-04-06T07:58:48;98942.59;;;5.54;100.00
29903;BME280;30288;50.514;9.678;2023-04-06T08:00:55;98947.50;;;5.72;100.00
29903;BME280;30288;50.514;9.678;2023-04-06T08:03:01;98939.06;;;5.97;100.00
29903;BME280;30288;50.514;9.678;2023-04-06T08:05:08;98945.56;;;6.20;100.00
29903;BME280;30288;50.514;9.678;2023-04-06T08:07:14;98940.38;;;6.44;100.00
29903;BME280;30288;50.514;9.678;2023-04-06T08:09:23;98930.97;;;6.70;100.00
29903;BME280;30288;50.514;9.678;2023-04-06T08:11:28;98939.88;;;6.98;100.00
29903;BME280;30288;50.514;9.678;2023-04-06T08:13:34;98927.84;;;7.31;100.00
29903;BME280;30288;50.514;9.678;2023-04-06T08:15:40;98929.28;;;7.47;100.00
29903;BME280;30288;50.514;9.678;2023-04-06T08:17:45;98922.47;;;7.58;100.00
29903;BME280;30288;50.514;9.678;2023-04-06T08:19:50;98923.84;;;7.80;100.00
29903;BME280;30288;50.514;9.678;2023-04-06T08:21:55;98922.72;;;8.01;100.00
29903;BME280;30288;50.514;9.678;2023-04-06T08:24:01;98923.22;;;8.23;100.00
29903;BME280;30288;50.514;9.678;2023-04-06T08:26:09;98924.63;;;8.42;100.00
29903;BME280;30288;50.514;9.678;2023-04-06T08:28:15;98919.41;;;8.54;100.00
29903;BME280;30288;50.514;9.678;2023-04-06T08:30:20;98924.72;;;8.85;100.00
29903;BME280;30288;50.514;9.678;2023-04-06T08:32:25;98917.06;;;8.93;100.00
29903;BME280;30288;50.514;9.678;2023-04-06T08:34:31;98909.72;;;9.25;100.00
29903;BME280;30288;50.514;9.678;2023-04-06T08:36:37;98902.47;;;9.51;100.00
29903;BME280;30288;50.514;9.678;2023-04-06T08:38:42;98910.50;;;9.69;100.00
29903;BME280;30288;50.514;9.678;2023-04-06T08:40:47;98896.69;;;9.48;100.00
29903;BME280;30288;50.514;9.678;2023-04-06T08:42:59;98899.66;;;9.65;100.00
29903;BME280;30288;50.514;9.678;2023-04-06T08:45:10;98904.94;;;9.93;100.00
29903;BME280;30288;50.514;9.678;2023-04-06T08:47:16;98897.91;;;10.07;100.00
29903;BME280;30288;50.514;9.678;2023-04-06T08:49:25;98896.16;;;10.09;100.00
29903;BME280;30288;50.514;9.678;2023-04-06T08:51:31;98900.47;;;10.04;100.00
29903;BME280;30288;50.514;9.678;2023-04-06T08:53:36;98895.88;;;9.86;93.52
29903;BME280;30288;50.514;9.678;2023-04-06T08:55:43;98893.00;;;10.01;95.53
29903;BME280;30288;50.514;9.678;2023-04-06T08:57:49;98897.63;;;10.19;98.70
29903;BME280;30288;50.514;9.678;2023-04-06T09:00:00;98895.69;;;10.30;96.79
29903;BME280;30288;50.514;9.678;2023-04-06T09:02:06;98894.31;;;10.51;96.50
29903;BME280;30288;50.514;9.678;2023-04-06T09:04:16;98903.28;;;10.63;97.63
29903;BME280;30288;50.514;9.678;2023-04-06T09:06:22;98902.31;;;10.99;100.00
29903;BME280;30288;50.514;9.678;2023-04-06T09:08:28;98896.50;;;10.65;90.74
29903;BME280;30288;50.514;9.678;2023-04-06T09:10:34;98898.69;;;10.78;86.75
29903;BME280;30288;50.514;9.678;2023-04-06T09:12:39;98897.97;;;11.04;86.78
29903;BME280;30288;50.514;9.678;2023-04-06T09:14:44;98909.00;;;11.00;81.88
29903;BME280;30288;50.514;9.678;2023-04-06T09:16:52;98898.69;;;11.09;81.45
29903;BME280;30288;50.514;9.678;2023-04-06T09:19:04;98897.81;;;11.10;84.43
29903;BME280;30288;50.514;9.678;2023-04-06T09:21:10;98898.16;;;11.27;79.85
29903;BME280;30288;50.514;9.678;2023-04-06T09:23:19;98889.38;;;11.40;80.87
29903;BME280;30288;50.514;9.678;2023-04-06T09:25:25;98888.94;;;11.56;81.58
29903;BME280;30288;50.514;9.678;2023-04-06T09:27:33;98888.66;;;11.37;73.74
29903;BME280;30288;50.514;9.678;2023-04-06T09:29:40;98881.03;;;11.38;73.85
29903;BME280;30288;50.514;9.678;2023-04-06T09:31:46;98889.91;;;11.22;71.21
29903;BME280;30288;50.514;9.678;2023-04-06T09:33:54;98882.72;;;11.39;73.16
29903;BME280;30288;50.514;9.678;2023-04-06T09:35:59;98879.81;;;11.22;71.64
29903;BME280;30288;50.514;9.678;2023-04-06T09:38:11;98877.47;;;11.46;74.97
29903;BME280;30288;50.514;9.678;2023-04-06T09:40:17;98884.00;;;11.53;70.44
29903;BME280;30288;50.514;9.678;2023-04-06T09:42:24;98883.38;;;11.74;77.26
29903;BME280;30288;50.514;9.678;2023-04-06T09:44:30;98887.97;;;11.89;74.34
29903;BME280;30288;50.514;9.678;2023-04-06T09:46:37;98876.94;;;11.64;66.89
29903;BME280;30288;50.514;9.678;2023-04-06T09:49:03;98880.38;;;11.89;72.83
29903;BME280;30288;50.514;9.678;2023-04-06T09:51:11;98888.16;;;11.83;70.62
29903;BME280;30288;50.514;9.678;2023-04-06T09:53:19;98886.69;;;11.76;69.26
29903;BME280;30288;50.514;9.678;2023-04-06T09:55:31;98867.78;;;11.89;68.99
29903;BME280;30288;50.514;9.678;2023-04-06T09:57:45;98874.38;;;11.93;70.93
29903;BME280;30288;50.514;9.678;2023-04-06T10:00:02;98872.16;;;12.10;67.50
29903;BME280;30288;50.514;9.678;2023-04-06T10:02:24;98870.50;;;12.09;67.80
29903;BME280;30288;50.514;9.678;2023-04-06T10:04:40;98875.94;;;11.97;69.76
29903;BME280;30288;50.514;9.678;2023-04-06T10:06:48;98881.53;;;12.07;68.83
29903;BME280;30288;50.514;9.678;2023-04-06T10:08:56;98863.72;;;12.36;70.29
29903;BME280;30288;50.514;9.678;2023-04-06T10:11:02;98874.97;;;12.52;68.30
29903;BME280;30288;50.514;9.678;2023-04-06T10:13:11;98873.28;;;12.53;70.07
29903;BME280;30288;50.514;9.678;2023-04-06T10:15:16;98871.25;;;12.38;66.83
29903;BME280;30288;50.514;9.678;2023-04-06T10:17:24;98867.41;;;12.52;69.17
29903;BME280;30288;50.514;9.678;2023-04-06T10:19:46;98857.75;;;12.63;68.85
29903;BME280;30288;50.514;9.678;2023-04-06T10:21:57;98864.09;;;12.75;67.90
29903;BME280;30288;50.514;9.678;2023-04-06T10:24:08;98871.31;;;12.61;68.06
29903;BME280;30288;50.514;9.678;2023-04-06T10:26:17;98877.81;;;12.68;72.26
29903;BME280;30288;50.514;9.678;2023-04-06T10:28:26;98878.28;;;12.30;66.89
29903;BME280;30288;50.514;9.678;2023-04-06T10:30:42;98867.94;;;12.36;69.21
29903;BME280;30288;50.514;9.678;2023-04-06T10:32:48;98874.63;;;12.63;68.01
29903;BME280;30288;50.514;9.678;2023-04-06T10:35:06;98866.72;;;12.72;68.16
29903;BME280;30288;50.514;9.678;2023-04-06T10:37:13;98874.72;;;12.60;67.73
29903;BME280;30288;50.514;9.678;2023-04-06T10:39:24;98871.22;;;13.12;71.14
29903;BME280;30288;50.514;9.678;2023-04-06T10:41:35;98873.59;;;13.17;68.34
29903;BME280;30288;50.514;9.678;2023-04-06T10:43:41;98869.94;;;12.77;70.34
29903;BME280;30288;50.514;9.678;2023-04-06T10:45:56;98865.97;;;12.93;69.62
29903;BME280;30288;50.514;9.678;2023-04-06T10:48:13;98871.06;;;13.17;72.90
29903;BME280;30288;50.514;9.678;2023-04-06T10:50:22;98860.66;;;12.78;66.58
29903;BME280;30288;50.514;9.678;2023-04-06T10:52:27;98866.41;;;12.81;70.63
29903;BME280;30288;50.514;9.678;2023-04-06T10:54:33;98858.28;;;12.96;66.47
29903;BME280;30288;50.514;9.678;2023-04-06T10:56:39;98852.09;;;13.50;70.17
29903;BME280;30288;50.514;9.678;2023-04-06T10:58:47;98845.72;;;13.63;67.01
29903;BME280;30288;50.514;9.678;2023-04-06T11:00:54;98850.25;;;13.77;71.72
29903;BME280;30288;50.514;9.678;2023-04-06T11:03:02;98848.47;;;14.00;68.72
29903;BME280;30288;50.514;9.678;2023-04-06T11:05:08;98842.88;;;14.13;69.83
29903;BME280;30288;50.514;9.678;2023-04-06T11:07:25;98849.88;;;13.86;65.67
29903;BME280;30288;50.514;9.678;2023-04-06T11:09:32;98855.28;;;13.55;68.96
29903;BME280;30288;50.514;9.678;2023-04-06T11:11:39;98846.13;;;13.52;63.81
29903;BME280;30288;50.514;9.678;2023-04-06T11:13:46;98849.13;;;13.62;67.41
29903;BME280;30288;50.514;9.678;2023-04-06T11:15:52;98838.34;;;13.79;66.66